< < Back
Terminal Aerodrome Forecast


Current Version              Previous Versions:   1  2  3  4  5  6  7  8  9  

Terminal Aerodrome Forecast

383
FTUS42 KFFC 302259 AAA
TAFFTY
TAF AMD
KFTY 302259Z 3023/0118 18010G18KT P6SM VCSH BKN050
      TEMPO 3023/3024 VRB15G25KT 3SM TSRA BKN035CB
     FM010000 18006KT 5SM -TSRA BR BKN030CB
     FM010400 18005KT P6SM SCT060 BKN250
     FM010900 21004KT P6SM BKN015
     FM011400 23008KT P6SM VCSH BKN025=

Latest METAR

995
SAUS70 KWBC 010000 RRI
MTRFTY
METAR KFTY 302353Z 19007G18KT 10SM SCT048 OVC060 22/18 A2995 RMK AO2 LTG
DSNT ALQDS RAE38 TSB2255E43 SLP136 P0053 60054 T02170178
10306 20194 51020


USA.gov is the U.S. government's official web portal to all federal, state and local government web resources and services.